Time;durP1;ratioP1;P1;durP2;ratioP2;P2;SDS_P1;SDS_P2;PMS_P1;PMS_P2;Temp;Humidity;BMP_temperature;BMP_pressure;BME280_temperature;BME280_humidity;BME280_pressure;Samples;Min_cycle;Max_cycle;Signal;HPM_P1;HPM_P2
2022/03/05 00:00:57;;;;;;;11.33;8.63;;;;;;;;;;2056982;28;20673;-60
2022/03/05 00:01:57;;;;;;;11.83;9.27;;;;;;;;;;2064208;28;20174;-57
2022/03/05 00:02:58;;;;;;;11.00;8.90;;;;;;;;;;2063122;28;20166;-60
2022/03/05 00:03:58;;;;;;;11.87;9.20;;;;;;;;;;2059734;28;20197;-58
2022/03/05 00:04:58;;;;;;;12.87;8.83;;;;;;;;;;2062635;28;20186;-61
2022/03/05 00:05:59;;;;;;;18.07;11.57;;;;;;;;;;2056081;28;20202;-61
2022/03/05 00:06:59;;;;;;;25.93;14.27;;;;;;;;;;2056722;28;20205;-60
2022/03/05 00:07:59;;;;;;;16.93;11.13;;;;;;;;;;2051417;28;20170;-62
2022/03/05 00:08:59;;;;;;;16.73;11.37;;;;;;;;;;2059445;28;20607;-62
2022/03/05 00:10:00;;;;;;;17.50;11.73;;;;;;;;;;2069433;28;20173;-58
2022/03/05 00:11:00;;;;;;;11.93;9.23;;;;;;;;;;2064657;28;20180;-60
2022/03/05 00:12:00;;;;;;;12.57;9.00;;;;;;;;;;2064158;28;20182;-58
2022/03/05 00:13:01;;;;;;;12.97;8.73;;;;;;;;;;2065861;28;20553;-58
2022/03/05 00:14:01;;;;;;;14.37;9.73;;;;;;;;;;2055078;28;20728;-60
2022/03/05 00:15:01;;;;;;;12.17;8.93;;;;;;;;;;2056073;28;20222;-60
2022/03/05 00:16:02;;;;;;;12.73;9.70;;;;;;;;;;2064468;28;20193;-55
2022/03/05 00:17:03;;;;;;;12.60;9.67;;;;;;;;;;2065182;28;20748;-61
2022/03/05 00:18:03;;;;;;;12.67;9.87;;;;;;;;;;2063266;28;20212;-60
2022/03/05 00:19:05;;;;;;;11.90;8.53;;;;;;;;;;2063737;28;20184;-60
2022/03/05 00:20:06;;;;;;;13.03;9.23;;;;;;;;;;2064651;28;20430;-61
2022/03/05 00:21:06;;;;;;;11.77;8.70;;;;;;;;;;2055965;28;20293;-62
2022/03/05 00:22:07;;;;;;;12.83;8.63;;;;;;;;;;2047882;29;20171;-63
2022/03/05 00:23:07;;;;;;;12.67;9.27;;;;;;;;;;2047766;29;20199;-62
2022/03/05 00:24:07;;;;;;;10.53;8.60;;;;;;;;;;2055228;28;20189;-60
2022/03/05 00:25:08;;;;;;;9.37;8.03;;;;;;;;;;2056542;28;20254;-59
2022/03/05 00:26:08;;;;;;;13.50;9.20;;;;;;;;;;2053050;28;20221;-61
2022/03/05 00:27:08;;;;;;;14.40;9.87;;;;;;;;;;2064029;28;20173;-57
2022/03/05 00:28:09;;;;;;;13.37;8.47;;;;;;;;;;2054632;28;20209;-61
2022/03/05 00:29:09;;;;;;;13.23;8.93;;;;;;;;;;2047826;28;20193;-61
2022/03/05 00:30:10;;;;;;;12.47;8.13;;;;;;;;;;2056043;28;20178;-59
2022/03/05 00:31:10;;;;;;;15.07;9.67;;;;;;;;;;2055718;28;20186;-61
2022/03/05 00:32:11;;;;;;;12.93;9.90;;;;;;;;;;2054906;28;20187;-59
2022/03/05 00:33:11;;;;;;;13.93;9.47;;;;;;;;;;2064861;28;20339;-58
2022/03/05 00:34:11;;;;;;;13.63;9.37;;;;;;;;;;2063506;28;20220;-60
2022/03/05 00:35:12;;;;;;;12.90;9.50;;;;;;;;;;2062383;28;20219;-62
2022/03/05 00:36:12;;;;;;;12.37;9.47;;;;;;;;;;2061238;28;20228;-62
2022/03/05 00:37:12;;;;;;;13.27;9.60;;;;;;;;;;2064100;28;20182;-61
2022/03/05 00:38:13;;;;;;;14.97;10.00;;;;;;;;;;2061363;28;20243;-61
2022/03/05 00:39:13;;;;;;;12.10;9.50;;;;;;;;;;2063174;28;20547;-60
2022/03/05 00:40:14;;;;;;;13.83;10.10;;;;;;;;;;2063385;28;20173;-61
2022/03/05 00:41:14;;;;;;;13.70;10.47;;;;;;;;;;2064619;28;20209;-61
2022/03/05 00:42:14;;;;;;;14.70;10.47;;;;;;;;;;2063437;28;20173;-61
2022/03/05 00:43:15;;;;;;;14.77;9.80;;;;;;;;;;2064034;28;20185;-60
2022/03/05 00:44:15;;;;;;;15.97;11.93;;;;;;;;;;2059994;28;20188;-61
2022/03/05 00:45:15;;;;;;;15.20;11.97;;;;;;;;;;2061313;28;20216;-61
2022/03/05 00:46:15;;;;;;;19.77;15.27;;;;;;;;;;2060320;28;20318;-63
2022/03/05 00:47:16;;;;;;;14.77;10.57;;;;;;;;;;2061353;28;20208;-60
2022/03/05 00:48:17;;;;;;;17.33;11.57;;;;;;;;;;2058028;28;20182;-61
2022/03/05 00:49:18;;;;;;;17.03;12.83;;;;;;;;;;2061182;28;20174;-59
2022/03/05 00:50:18;;;;;;;15.97;11.93;;;;;;;;;;2063965;28;20162;-60
2022/03/05 00:51:19;;;;;;;21.60;15.30;;;;;;;;;;2060084;28;20213;-61
2022/03/05 00:52:20;;;;;;;14.20;10.70;;;;;;;;;;2062495;28;20263;-61
2022/03/05 00:53:21;;;;;;;19.27;12.40;;;;;;;;;;2059631;28;20553;-61
2022/03/05 00:54:21;;;;;;;18.30;12.93;;;;;;;;;;2062317;28;20845;-61
2022/03/05 00:55:21;;;;;;;16.63;10.67;;;;;;;;;;2064037;28;20469;-60
2022/03/05 00:56:22;;;;;;;16.30;11.40;;;;;;;;;;2063879;28;20174;-61
2022/03/05 00:57:22;;;;;;;14.57;10.40;;;;;;;;;;2064553;28;20556;-61
2022/03/05 00:58:22;;;;;;;15.67;11.50;;;;;;;;;;2064528;28;20178;-60
2022/03/05 00:59:22;;;;;;;15.30;11.10;;;;;;;;;;2053438;28;20179;-60
2022/03/05 01:00:23;;;;;;;17.20;11.00;;;;;;;;;;2055187;28;20185;-61
2022/03/05 01:01:23;;;;;;;17.67;11.80;;;;;;;;;;2063515;28;20212;-59
2022/03/05 01:02:24;;;;;;;15.87;11.17;;;;;;;;;;2063553;28;20236;-59
2022/03/05 01:03:24;;;;;;;14.83;9.97;;;;;;;;;;2057795;28;20186;-60
2022/03/05 01:04:24;;;;;;;17.60;11.07;;;;;;;;;;2062198;28;20283;-59
2022/03/05 01:05:25;;;;;;;16.40;11.60;;;;;;;;;;2055543;28;20761;-61
2022/03/05 01:06:27;;;;;;;13.87;9.73;;;;;;;;;;2055289;28;20286;-58
2022/03/05 01:07:27;;;;;;;15.40;10.53;;;;;;;;;;2055117;28;20182;-59
2022/03/05 01:08:28;;;;;;;16.00;11.37;;;;;;;;;;2055066;28;20431;-61
2022/03/05 01:09:28;;;;;;;16.13;10.80;;;;;;;;;;2062167;28;20173;-60
2022/03/05 01:10:28;;;;;;;15.07;11.50;;;;;;;;;;2063451;28;20185;-59
2022/03/05 01:11:28;;;;;;;15.97;10.77;;;;;;;;;;2062936;28;20257;-60
2022/03/05 01:12:29;;;;;;;15.53;10.90;;;;;;;;;;2047464;28;20175;-62
2022/03/05 01:13:29;;;;;;;14.73;10.40;;;;;;;;;;2048146;29;20631;-61
2022/03/05 01:14:29;;;;;;;19.47;12.23;;;;;;;;;;2063155;28;20205;-62
2022/03/05 01:15:29;;;;;;;15.23;11.10;;;;;;;;;;2056605;28;20205;-61
2022/03/05 01:16:30;;;;;;;15.67;11.27;;;;;;;;;;2055359;28;20194;-61
2022/03/05 01:17:30;;;;;;;17.13;11.27;;;;;;;;;;2063816;28;20792;-60
2022/03/05 01:18:30;;;;;;;16.67;11.60;;;;;;;;;;2063858;28;20273;-62
2022/03/05 01:19:30;;;;;;;17.43;10.73;;;;;;;;;;2063842;28;20215;-59
2022/03/05 01:20:31;;;;;;;15.37;10.87;;;;;;;;;;2063606;28;20174;-62
2022/03/05 01:21:31;;;;;;;17.00;11.33;;;;;;;;;;2064444;28;20192;-61
2022/03/05 01:22:32;;;;;;;19.23;12.30;;;;;;;;;;2063581;28;20186;-60
2022/03/05 01:23:32;;;;;;;18.17;12.63;;;;;;;;;;2055930;28;20273;-61
2022/03/05 01:24:32;;;;;;;16.63;11.10;;;;;;;;;;2055457;28;20631;-60
2022/03/05 01:25:32;;;;;;;16.03;12.00;;;;;;;;;;2055031;28;20186;-61
2022/03/05 01:26:33;;;;;;;16.57;12.43;;;;;;;;;;2056069;28;20695;-60
2022/03/05 01:27:33;;;;;;;19.17;12.93;;;;;;;;;;2063683;28;20195;-60
2022/03/05 01:28:33;;;;;;;18.93;12.13;;;;;;;;;;2061237;28;20505;-61
2022/03/05 01:29:35;;;;;;;20.73;12.47;;;;;;;;;;2062310;28;20253;-59
2022/03/05 01:30:35;;;;;;;18.20;12.10;;;;;;;;;;2063473;28;20465;-61
2022/03/05 01:31:36;;;;;;;19.10;11.93;;;;;;;;;;2060765;28;20205;-59
2022/03/05 01:32:36;;;;;;;18.60;12.00;;;;;;;;;;2060269;28;20189;-61
2022/03/05 01:33:36;;;;;;;18.83;12.43;;;;;;;;;;2056560;28;20186;-62
2022/03/05 01:34:37;;;;;;;20.60;11.87;;;;;;;;;;2042892;29;20214;-61
2022/03/05 01:35:37;;;;;;;17.97;12.80;;;;;;;;;;2049968;28;20603;-61
2022/03/05 01:36:37;;;;;;;18.10;12.90;;;;;;;;;;2064122;28;20690;-60
2022/03/05 01:37:38;;;;;;;17.40;12.47;;;;;;;;;;2065105;28;20181;-61
2022/03/05 01:38:38;;;;;;;16.70;12.70;;;;;;;;;;2065164;28;20617;-62
2022/03/05 01:39:41;;;;;;;19.80;12.43;;;;;;;;;;2064017;28;20181;-60
2022/03/05 01:40:42;;;;;;;19.03;12.87;;;;;;;;;;2057795;28;20170;-63
2022/03/05 01:41:44;;;;;;;19.63;12.03;;;;;;;;;;2064926;28;20415;-59
2022/03/05 01:42:44;;;;;;;17.07;11.50;;;;;;;;;;2056253;28;20186;-61
2022/03/05 01:43:53;;;;;;;19.90;12.70;;;;;;;;;;2048672;28;20409;-60
2022/03/05 01:44:54;;;;;;;20.23;12.93;;;;;;;;;;2051309;28;20812;-61
2022/03/05 01:45:54;;;;;;;16.40;11.17;;;;;;;;;;2048102;28;20439;-61
2022/03/05 01:46:54;;;;;;;19.57;13.10;;;;;;;;;;2050671;28;20640;-61
2022/03/05 01:47:55;;;;;;;18.67;12.07;;;;;;;;;;2056040;28;20198;-60
2022/03/05 01:48:55;;;;;;;21.80;12.93;;;;;;;;;;2056088;28;20250;-61
2022/03/05 01:49:55;;;;;;;23.43;14.07;;;;;;;;;;2064471;28;20193;-61
2022/03/05 01:50:55;;;;;;;19.37;12.07;;;;;;;;;;2056125;28;20261;-63
2022/03/05 01:51:57;;;;;;;21.00;14.03;;;;;;;;;;2056213;28;20231;-61
2022/03/05 01:52:57;;;;;;;23.57;13.43;;;;;;;;;;2055057;28;20338;-63
2022/03/05 01:53:57;;;;;;;19.30;12.10;;;;;;;;;;2055935;28;20491;-61
2022/03/05 01:54:58;;;;;;;21.33;14.10;;;;;;;;;;2064038;28;20197;-59
2022/03/05 01:55:58;;;;;;;23.50;13.40;;;;;;;;;;2063478;28;20510;-58
2022/03/05 01:56:59;;;;;;;20.60;12.87;;;;;;;;;;2064724;28;20174;-60
2022/03/05 01:57:59;;;;;;;22.60;13.43;;;;;;;;;;2064381;28;20646;-60
2022/03/05 01:59:00;;;;;;;21.83;14.07;;;;;;;;;;2064260;28;20180;-59
2022/03/05 02:00:01;;;;;;;19.63;12.63;;;;;;;;;;2056437;28;20537;-61
2022/03/05 02:01:01;;;;;;;25.03;14.33;;;;;;;;;;2057023;28;20436;-60
2022/03/05 02:02:01;;;;;;;22.10;13.63;;;;;;;;;;2063197;28;20193;-62
2022/03/05 02:03:02;;;;;;;24.50;13.87;;;;;;;;;;2056548;28;20246;-58
2022/03/05 02:04:02;;;;;;;21.80;13.60;;;;;;;;;;2053364;28;20207;-61
2022/03/05 02:05:03;;;;;;;22.10;13.93;;;;;;;;;;2062026;28;20627;-60
2022/03/05 02:06:04;;;;;;;21.07;13.87;;;;;;;;;;2064450;28;20205;-60
2022/03/05 02:07:04;;;;;;;26.40;15.07;;;;;;;;;;2052681;28;20816;-60
2022/03/05 02:08:05;;;;;;;22.33;14.33;;;;;;;;;;2056868;28;20274;-59
2022/03/05 02:09:05;;;;;;;26.80;16.87;;;;;;;;;;2060310;28;20220;-61
2022/03/05 02:10:08;;;;;;;23.13;16.53;;;;;;;;;;2066348;28;20430;-60
2022/03/05 02:11:08;;;;;;;26.20;16.73;;;;;;;;;;2062780;28;20182;-61
2022/03/05 02:12:09;;;;;;;26.30;16.07;;;;;;;;;;2063084;28;20489;-62
2022/03/05 02:13:09;;;;;;;24.80;16.70;;;;;;;;;;2064381;28;20244;-61
2022/03/05 02:14:10;;;;;;;29.67;17.43;;;;;;;;;;2065556;28;20228;-62
2022/03/05 02:15:10;;;;;;;22.13;15.67;;;;;;;;;;2061029;28;20226;-60
2022/03/05 02:16:10;;;;;;;26.17;16.13;;;;;;;;;;2062121;28;20194;-60
2022/03/05 02:17:11;;;;;;;26.70;15.33;;;;;;;;;;2065108;28;20177;-59
2022/03/05 02:18:11;;;;;;;24.27;15.63;;;;;;;;;;2060785;28;20193;-59
2022/03/05 02:19:11;;;;;;;27.37;18.30;;;;;;;;;;2062654;28;20209;-60
2022/03/05 02:20:12;;;;;;;24.03;15.83;;;;;;;;;;2056199;28;20804;-60
2022/03/05 02:21:12;;;;;;;25.37;15.60;;;;;;;;;;2057132;28;20178;-60
2022/03/05 02:22:13;;;;;;;28.30;17.17;;;;;;;;;;2065947;28;20296;-62
2022/03/05 02:23:13;;;;;;;28.10;15.00;;;;;;;;;;2065601;28;20181;-61
2022/03/05 02:24:14;;;;;;;21.83;15.20;;;;;;;;;;2064438;28;20181;-61
2022/03/05 02:25:14;;;;;;;24.67;14.73;;;;;;;;;;2065200;28;20186;-61
2022/03/05 02:26:14;;;;;;;24.33;15.93;;;;;;;;;;2064481;28;20213;-60
2022/03/05 02:27:15;;;;;;;27.57;16.27;;;;;;;;;;2056941;28;20193;-59
2022/03/05 02:28:15;;;;;;;25.70;16.30;;;;;;;;;;2057657;28;20213;-61
2022/03/05 02:29:16;;;;;;;24.53;15.30;;;;;;;;;;2057819;28;20233;-62
2022/03/05 02:30:16;;;;;;;23.43;14.00;;;;;;;;;;2057605;28;20497;-62
2022/03/05 02:31:17;;;;;;;23.77;13.83;;;;;;;;;;2066388;28;20232;-60
2022/03/05 02:32:17;;;;;;;23.57;15.10;;;;;;;;;;2065797;28;20217;-62
2022/03/05 02:33:18;;;;;;;24.70;14.43;;;;;;;;;;2065319;28;20209;-60
2022/03/05 02:34:18;;;;;;;23.33;15.23;;;;;;;;;;2057063;28;20227;-60
2022/03/05 02:35:18;;;;;;;24.00;15.03;;;;;;;;;;2057951;28;20174;-61
2022/03/05 02:36:20;;;;;;;24.63;15.10;;;;;;;;;;2058385;28;20229;-61
2022/03/05 02:37:20;;;;;;;24.10;14.73;;;;;;;;;;2057773;28;20187;-61
2022/03/05 02:38:22;;;;;;;21.80;15.37;;;;;;;;;;2064490;28;20438;-60
2022/03/05 02:39:26;;;;;;;21.87;15.13;;;;;;;;;;2064802;28;20564;-61
2022/03/05 02:40:26;;;;;;;26.63;16.23;;;;;;;;;;2057371;28;20449;-60
2022/03/05 02:41:26;;;;;;;23.70;15.67;;;;;;;;;;2056947;28;20447;-60
2022/03/05 02:42:26;;;;;;;24.53;15.37;;;;;;;;;;2061424;28;20194;-61
2022/03/05 02:43:27;;;;;;;26.80;15.73;;;;;;;;;;2064413;28;20169;-59
2022/03/05 02:44:27;;;;;;;25.93;16.00;;;;;;;;;;2061294;28;20183;-60
2022/03/05 02:45:27;;;;;;;26.50;15.30;;;;;;;;;;2063993;28;20170;-60
2022/03/05 02:46:29;;;;;;;23.97;14.70;;;;;;;;;;2064211;28;20192;-59
2022/03/05 02:47:30;;;;;;;27.90;15.80;;;;;;;;;;2055739;28;20424;-60
2022/03/05 02:48:33;;;;;;;27.30;15.93;;;;;;;;;;2055507;28;20853;-60
2022/03/05 02:49:33;;;;;;;27.00;15.97;;;;;;;;;;2056928;28;20229;-61
2022/03/05 02:50:34;;;;;;;23.93;15.43;;;;;;;;;;2063791;28;20481;-61
2022/03/05 02:51:34;;;;;;;23.90;15.90;;;;;;;;;;2064991;28;20166;-61
2022/03/05 02:52:38;;;;;;;27.77;16.53;;;;;;;;;;2058694;28;20571;-60
2022/03/05 02:53:38;;;;;;;24.33;15.57;;;;;;;;;;2057149;28;20182;-59
2022/03/05 02:54:38;;;;;;;25.83;15.77;;;;;;;;;;2064209;28;20823;-60
2022/03/05 02:55:38;;;;;;;23.70;14.93;;;;;;;;;;2056324;28;20618;-59
2022/03/05 02:56:39;;;;;;;24.40;15.80;;;;;;;;;;2048307;28;20186;-58
2022/03/05 02:57:39;;;;;;;24.23;14.53;;;;;;;;;;2055935;28;20182;-62
2022/03/05 02:58:39;;;;;;;29.63;17.10;;;;;;;;;;2064552;28;20623;-60
2022/03/05 02:59:40;;;;;;;26.33;15.87;;;;;;;;;;2065071;28;20205;-62
2022/03/05 03:00:40;;;;;;;26.53;15.80;;;;;;;;;;2064109;28;20265;-62
2022/03/05 03:01:40;;;;;;;26.07;15.30;;;;;;;;;;2058065;28;20175;-60
2022/03/05 03:02:41;;;;;;;27.87;16.83;;;;;;;;;;2064533;28;20177;-60
2022/03/05 03:03:41;;;;;;;27.27;15.70;;;;;;;;;;2056838;28;20241;-61
2022/03/05 03:04:41;;;;;;;25.97;14.90;;;;;;;;;;2055697;28;20193;-60
2022/03/05 03:05:42;;;;;;;25.53;16.47;;;;;;;;;;2064328;28;20202;-60
2022/03/05 03:06:42;;;;;;;27.87;16.87;;;;;;;;;;2064961;28;20769;-60
2022/03/05 03:07:43;;;;;;;26.73;16.53;;;;;;;;;;2064286;28;20618;-60
2022/03/05 03:08:43;;;;;;;23.77;15.40;;;;;;;;;;2064734;28;20185;-59
2022/03/05 03:09:43;;;;;;;24.13;14.90;;;;;;;;;;2064931;28;20193;-61
2022/03/05 03:10:43;;;;;;;24.93;15.77;;;;;;;;;;2064375;28;20599;-62
2022/03/05 03:11:45;;;;;;;24.20;14.53;;;;;;;;;;2058157;28;20209;-60
2022/03/05 03:12:45;;;;;;;27.23;15.90;;;;;;;;;;2063398;28;20427;-59
2022/03/05 03:13:45;;;;;;;27.70;15.43;;;;;;;;;;2058677;28;20174;-58
2022/03/05 03:14:45;;;;;;;22.47;14.93;;;;;;;;;;2057907;28;20221;-62
2022/03/05 03:15:46;;;;;;;26.17;16.23;;;;;;;;;;2065122;28;20181;-59
2022/03/05 03:16:46;;;;;;;28.17;14.83;;;;;;;;;;2064556;28;20174;-61
2022/03/05 03:17:50;;;;;;;24.20;15.57;;;;;;;;;;2055757;28;20182;-59
2022/03/05 03:18:50;;;;;;;26.87;15.80;;;;;;;;;;2056307;28;20186;-60
2022/03/05 03:19:51;;;;;;;30.63;15.90;;;;;;;;;;2064470;28;20422;-61
2022/03/05 03:20:51;;;;;;;26.40;16.23;;;;;;;;;;2054853;28;20181;-57
2022/03/05 03:21:51;;;;;;;26.00;14.93;;;;;;;;;;2055856;28;20185;-60
2022/03/05 03:22:52;;;;;;;25.87;16.00;;;;;;;;;;2055809;28;20553;-61
2022/03/05 03:23:52;;;;;;;27.17;15.73;;;;;;;;;;2055318;28;20240;-61
2022/03/05 03:24:53;;;;;;;23.57;15.43;;;;;;;;;;2062732;28;20802;-62
2022/03/05 03:25:53;;;;;;;28.33;15.10;;;;;;;;;;2055552;28;20213;-61
2022/03/05 03:26:56;;;;;;;26.20;14.97;;;;;;;;;;2056600;28;20584;-61
2022/03/05 03:27:56;;;;;;;26.00;16.10;;;;;;;;;;2064930;28;20449;-61
2022/03/05 03:28:56;;;;;;;24.20;15.43;;;;;;;;;;2064960;28;20189;-61
2022/03/05 03:29:56;;;;;;;25.80;16.07;;;;;;;;;;2062070;28;20201;-62
2022/03/05 03:30:57;;;;;;;27.10;15.77;;;;;;;;;;2064732;28;20178;-61
2022/03/05 03:31:57;;;;;;;26.40;16.13;;;;;;;;;;2056310;28;20182;-61
2022/03/05 03:32:57;;;;;;;28.57;15.93;;;;;;;;;;2055882;28;20182;-58
2022/03/05 03:33:57;;;;;;;24.80;15.53;;;;;;;;;;2062681;28;20220;-61
2022/03/05 03:34:58;;;;;;;26.43;16.80;;;;;;;;;;2060157;28;20560;-61
2022/03/05 03:35:59;;;;;;;23.37;14.90;;;;;;;;;;2064417;28;20197;-60
2022/03/05 03:37:00;;;;;;;30.23;16.53;;;;;;;;;;2063809;28;20946;-62
2022/03/05 03:38:01;;;;;;;26.83;16.30;;;;;;;;;;2065543;28;20419;-61
2022/03/05 03:39:01;;;;;;;25.43;15.97;;;;;;;;;;2064561;28;20178;-61
2022/03/05 03:40:04;;;;;;;27.70;15.67;;;;;;;;;;2047999;29;20569;-62
2022/03/05 03:41:04;;;;;;;27.37;16.10;;;;;;;;;;2041380;28;20185;-61
2022/03/05 03:42:04;;;;;;;27.97;16.60;;;;;;;;;;2054032;28;20451;-61
2022/03/05 03:43:05;;;;;;;26.83;16.27;;;;;;;;;;2055971;28;20233;-63
2022/03/05 03:44:05;;;;;;;30.57;16.90;;;;;;;;;;2055653;28;20646;-60
2022/03/05 03:45:06;;;;;;;23.57;15.07;;;;;;;;;;2064126;28;20189;-60
2022/03/05 03:46:06;;;;;;;27.63;17.13;;;;;;;;;;2064273;28;20202;-58
2022/03/05 03:47:06;;;;;;;25.93;15.30;;;;;;;;;;2064143;28;20697;-60
2022/03/05 03:48:07;;;;;;;26.20;16.00;;;;;;;;;;2064230;28;20224;-59
2022/03/05 03:49:07;;;;;;;26.60;16.13;;;;;;;;;;2063978;28;20522;-60
2022/03/05 03:50:08;;;;;;;25.70;15.63;;;;;;;;;;2064544;28;20208;-60
2022/03/05 03:51:08;;;;;;;23.80;15.67;;;;;;;;;;2064356;28;20177;-61
2022/03/05 03:52:09;;;;;;;22.07;14.80;;;;;;;;;;2065240;28;20415;-60
2022/03/05 03:53:09;;;;;;;25.47;15.37;;;;;;;;;;2055793;28;20182;-61
2022/03/05 03:54:09;;;;;;;23.47;15.67;;;;;;;;;;2055964;28;20224;-57
2022/03/05 03:55:11;;;;;;;23.10;15.23;;;;;;;;;;2056251;28;20198;-61
2022/03/05 03:56:11;;;;;;;27.67;14.97;;;;;;;;;;2056667;28;20447;-59
2022/03/05 03:57:11;;;;;;;25.83;15.93;;;;;;;;;;2065450;28;20418;-62
2022/03/05 03:58:11;;;;;;;27.47;16.43;;;;;;;;;;2065203;28;20524;-63
2022/03/05 03:59:12;;;;;;;24.77;15.27;;;;;;;;;;2065075;28;20584;-59
2022/03/05 04:00:14;;;;;;;25.93;16.57;;;;;;;;;;2065421;28;20549;-59
2022/03/05 04:01:14;;;;;;;24.57;15.53;;;;;;;;;;2056341;28;20225;-60
2022/03/05 04:02:14;;;;;;;25.50;14.73;;;;;;;;;;2056734;28;20543;-61
2022/03/05 04:03:15;;;;;;;25.87;15.20;;;;;;;;;;2065287;28;20604;-62
2022/03/05 04:04:15;;;;;;;25.00;15.07;;;;;;;;;;2064620;28;20281;-61
2022/03/05 04:05:16;;;;;;;30.80;16.70;;;;;;;;;;2056499;28;20174;-61
2022/03/05 04:06:16;;;;;;;27.97;16.37;;;;;;;;;;2056242;28;20237;-60
2022/03/05 04:08:41;;;;;;;26.23;14.93;;;;;;;;;;2058974;28;20257;-59
2022/03/05 04:09:41;;;;;;;28.67;15.07;;;;;;;;;;2065337;28;20395;-61
2022/03/05 04:10:42;;;;;;;26.57;16.77;;;;;;;;;;2065698;28;20419;-62
2022/03/05 04:11:42;;;;;;;26.97;16.97;;;;;;;;;;2066224;28;20188;-59
2022/03/05 04:12:42;;;;;;;29.73;16.53;;;;;;;;;;2065577;28;20170;-61
2022/03/05 04:13:44;;;;;;;29.90;16.07;;;;;;;;;;2056517;28;20186;-59
2022/03/05 04:14:44;;;;;;;25.33;15.80;;;;;;;;;;2047038;28;20207;-61
2022/03/05 04:15:46;;;;;;;29.50;17.47;;;;;;;;;;2047815;28;20845;-59
2022/03/05 04:16:46;;;;;;;28.17;16.53;;;;;;;;;;2055391;28;20173;-60
2022/03/05 04:17:47;;;;;;;27.40;16.03;;;;;;;;;;2054723;28;20827;-59
2022/03/05 04:18:47;;;;;;;31.03;17.83;;;;;;;;;;2055271;28;20221;-60
2022/03/05 04:19:47;;;;;;;27.60;16.37;;;;;;;;;;2063915;28;20264;-59
2022/03/05 04:20:48;;;;;;;25.50;15.60;;;;;;;;;;2063937;28;20224;-56
2022/03/05 04:21:48;;;;;;;26.10;15.93;;;;;;;;;;2064026;28;20196;-59
2022/03/05 04:22:49;;;;;;;29.67;16.57;;;;;;;;;;2055102;28;20213;-61
2022/03/05 04:23:49;;;;;;;23.97;15.30;;;;;;;;;;2056113;28;20205;-61
2022/03/05 04:24:49;;;;;;;32.07;16.70;;;;;;;;;;2055018;28;20321;-61
2022/03/05 04:25:50;;;;;;;25.30;16.17;;;;;;;;;;2055611;28;20305;-61
2022/03/05 04:26:50;;;;;;;30.73;16.27;;;;;;;;;;2055712;28;20170;-59
2022/03/05 04:27:51;;;;;;;27.33;17.53;;;;;;;;;;2055932;28;20284;-61
2022/03/05 04:28:51;;;;;;;26.20;16.53;;;;;;;;;;2055313;28;20439;-60
2022/03/05 04:29:52;;;;;;;28.47;16.20;;;;;;;;;;2055661;28;20178;-60
2022/03/05 04:30:52;;;;;;;26.40;15.80;;;;;;;;;;2055503;28;20266;-60
2022/03/05 04:31:52;;;;;;;26.97;17.20;;;;;;;;;;2063959;28;20669;-59
2022/03/05 04:32:53;;;;;;;27.53;15.67;;;;;;;;;;2064289;28;20266;-57
2022/03/05 04:33:53;;;;;;;25.60;16.63;;;;;;;;;;2052034;28;20174;-59
2022/03/05 04:34:54;;;;;;;25.27;16.40;;;;;;;;;;2055070;28;20675;-60
2022/03/05 04:35:55;;;;;;;23.37;15.07;;;;;;;;;;2055627;28;20462;-60
2022/03/05 04:36:55;;;;;;;22.97;15.27;;;;;;;;;;2046890;28;20554;-60
2022/03/05 04:37:55;;;;;;;25.37;15.13;;;;;;;;;;2052191;28;20249;-60
2022/03/05 04:38:57;;;;;;;28.87;15.30;;;;;;;;;;2062999;28;20257;-60
2022/03/05 04:39:57;;;;;;;25.20;16.20;;;;;;;;;;2060915;28;20431;-59
2022/03/05 04:40:58;;;;;;;25.83;15.73;;;;;;;;;;2062168;28;20228;-59
2022/03/05 04:41:58;;;;;;;26.70;15.43;;;;;;;;;;2059309;28;20209;-57
2022/03/05 04:42:59;;;;;;;24.97;15.30;;;;;;;;;;2055058;28;20451;-59
2022/03/05 04:44:00;;;;;;;29.90;15.00;;;;;;;;;;2055206;28;20225;-57
2022/03/05 04:45:01;;;;;;;27.27;14.83;;;;;;;;;;2063393;28;20799;-61
2022/03/05 04:46:01;;;;;;;26.03;16.47;;;;;;;;;;2064070;28;20197;-60
2022/03/05 04:47:01;;;;;;;28.03;15.93;;;;;;;;;;2061053;28;20262;-60
2022/03/05 04:48:02;;;;;;;24.80;16.17;;;;;;;;;;2059534;28;20264;-62
2022/03/05 04:49:02;;;;;;;26.87;16.40;;;;;;;;;;2055301;28;20178;-61
2022/03/05 04:50:04;;;;;;;28.30;16.67;;;;;;;;;;2055526;28;20503;-60
2022/03/05 04:51:04;;;;;;;27.27;16.53;;;;;;;;;;2063988;28;20435;-60
2022/03/05 04:52:05;;;;;;;25.80;15.93;;;;;;;;;;2054963;28;20829;-59
2022/03/05 04:53:05;;;;;;;26.27;16.40;;;;;;;;;;2054090;28;20178;-57
2022/03/05 04:54:05;;;;;;;26.77;15.90;;;;;;;;;;2055546;28;20181;-61
2022/03/05 04:55:06;;;;;;;26.37;15.57;;;;;;;;;;2056600;28;20220;-60
2022/03/05 04:56:07;;;;;;;24.43;14.97;;;;;;;;;;2061277;28;20266;-62
2022/03/05 04:57:07;;;;;;;27.30;16.07;;;;;;;;;;2060727;28;20404;-61
2022/03/05 04:58:07;;;;;;;25.80;15.30;;;;;;;;;;2063374;28;20174;-57
2022/03/05 04:59:07;;;;;;;26.03;16.07;;;;;;;;;;2064994;28;20227;-61
2022/03/05 05:00:08;;;;;;;27.20;15.30;;;;;;;;;;2063057;28;20182;-59
2022/03/05 05:01:08;;;;;;;22.73;15.50;;;;;;;;;;2064443;28;20252;-57
2022/03/05 05:02:08;;;;;;;23.87;15.57;;;;;;;;;;2064421;28;20268;-60
2022/03/05 05:03:09;;;;;;;25.10;15.27;;;;;;;;;;2062570;28;20210;-58
2022/03/05 05:04:09;;;;;;;25.90;14.33;;;;;;;;;;2063829;28;20174;-59
2022/03/05 05:05:10;;;;;;;27.07;15.30;;;;;;;;;;2064041;28;20200;-56
2022/03/05 05:06:11;;;;;;;26.53;15.50;;;;;;;;;;2063434;28;20275;-58
2022/03/05 05:07:12;;;;;;;26.57;15.00;;;;;;;;;;2063759;28;20485;-61
2022/03/05 05:08:13;;;;;;;27.07;16.83;;;;;;;;;;2061508;28;20528;-59
2022/03/05 05:09:13;;;;;;;24.83;14.63;;;;;;;;;;2064053;28;20182;-60
2022/03/05 05:10:13;;;;;;;26.27;15.60;;;;;;;;;;2055208;28;20194;-61
2022/03/05 05:11:13;;;;;;;25.47;15.50;;;;;;;;;;2054776;28;20198;-58
2022/03/05 05:12:14;;;;;;;24.67;16.27;;;;;;;;;;2052661;28;20268;-58
2022/03/05 05:13:14;;;;;;;24.77;16.00;;;;;;;;;;2055652;28;20221;-59
2022/03/05 05:14:14;;;;;;;26.70;16.30;;;;;;;;;;2063574;28;20340;-58
2022/03/05 05:15:14;;;;;;;26.57;16.07;;;;;;;;;;2064244;28;20223;-60
2022/03/05 05:16:15;;;;;;;24.63;14.80;;;;;;;;;;2064217;28;20194;-60
2022/03/05 05:17:15;;;;;;;29.50;15.37;;;;;;;;;;2058105;28;20186;-62
2022/03/05 05:18:15;;;;;;;23.57;15.53;;;;;;;;;;2063254;28;20188;-61
2022/03/05 05:19:24;;;;;;;26.73;15.63;;;;;;;;;;2062716;28;20173;-61
2022/03/05 05:20:25;;;;;;;25.00;15.40;;;;;;;;;;2065754;28;20177;-61
2022/03/05 05:21:25;;;;;;;23.07;13.97;;;;;;;;;;2064593;28;20431;-62
2022/03/05 05:22:26;;;;;;;25.40;16.33;;;;;;;;;;2065777;28;20631;-61
2022/03/05 05:23:26;;;;;;;24.07;15.17;;;;;;;;;;2065074;28;20178;-62
2022/03/05 05:24:28;;;;;;;25.80;15.87;;;;;;;;;;2063348;28;20657;-62
2022/03/05 05:25:28;;;;;;;25.73;15.33;;;;;;;;;;2064306;28;20178;-61
2022/03/05 05:26:29;;;;;;;26.17;16.70;;;;;;;;;;2086254;23;20395;-62
2022/03/05 05:27:29;;;;;;;25.03;15.57;;;;;;;;;;2070023;28;20193;-64
2022/03/05 05:28:29;;;;;;;26.53;16.17;;;;;;;;;;2071963;28;20642;-63
2022/03/05 05:29:30;;;;;;;25.73;15.00;;;;;;;;;;2069422;28;20178;-62
2022/03/05 05:30:30;;;;;;;30.13;17.80;;;;;;;;;;2072000;28;20667;-62
2022/03/05 05:31:31;;;;;;;23.60;14.30;;;;;;;;;;2072248;28;20257;-63
2022/03/05 05:32:31;;;;;;;26.73;15.33;;;;;;;;;;2072401;28;20830;-63
2022/03/05 05:33:31;;;;;;;28.93;15.50;;;;;;;;;;2063166;28;20569;-63
2022/03/05 05:34:32;;;;;;;22.07;14.50;;;;;;;;;;2069506;28;20189;-64
2022/03/05 05:35:32;;;;;;;25.07;15.17;;;;;;;;;;2072587;28;20188;-63
2022/03/05 05:36:32;;;;;;;25.77;14.73;;;;;;;;;;2074365;28;20292;-63
2022/03/05 05:37:32;;;;;;;26.43;15.53;;;;;;;;;;2070484;28;20197;-63
2022/03/05 05:38:33;;;;;;;27.00;15.87;;;;;;;;;;2074573;28;20175;-62
2022/03/05 05:39:33;;;;;;;27.80;15.20;;;;;;;;;;2069146;28;20658;-65
2022/03/05 05:40:34;;;;;;;30.53;17.07;;;;;;;;;;2074654;28;20268;-62
2022/03/05 05:41:35;;;;;;;26.27;17.07;;;;;;;;;;2073426;28;20580;-62
2022/03/05 05:42:35;;;;;;;24.03;16.03;;;;;;;;;;2073587;28;20169;-63
2022/03/05 05:43:35;;;;;;;24.67;15.27;;;;;;;;;;2061336;28;20177;-63
2022/03/05 05:44:36;;;;;;;26.43;14.63;;;;;;;;;;2065916;28;20244;-63
2022/03/05 05:45:36;;;;;;;28.27;15.67;;;;;;;;;;2069689;28;20240;-65
2022/03/05 05:46:37;;;;;;;24.43;14.73;;;;;;;;;;2075321;28;20224;-59
2022/03/05 05:47:38;;;;;;;28.27;16.87;;;;;;;;;;2067581;28;20209;-63
2022/03/05 05:48:39;;;;;;;23.83;15.00;;;;;;;;;;2074426;28;20410;-63
2022/03/05 05:49:39;;;;;;;33.83;16.53;;;;;;;;;;2075207;28;20617;-61
2022/03/05 05:50:41;;;;;;;30.43;16.20;;;;;;;;;;2064254;28;20197;-63
2022/03/05 05:51:41;;;;;;;27.63;15.77;;;;;;;;;;2066117;28;20183;-62
2022/03/05 05:52:42;;;;;;;27.43;16.00;;;;;;;;;;2074031;28;20435;-64
2022/03/05 05:53:42;;;;;;;25.47;15.90;;;;;;;;;;2075150;28;20199;-63
2022/03/05 05:54:42;;;;;;;22.30;15.10;;;;;;;;;;2072760;28;20202;-62